Time;durP1;ratioP1;P1;durP2;ratioP2;P2;SDS_P1;SDS_P2;PMS_P1;PMS_P2;Temp;Humidity;BMP_temperature;BMP_pressure;BME280_temperature;BME280_humidity;BME280_pressure;Samples;Min_cycle;Max_cycle;Signal;HPM_P1;HPM_P2
2021/09/10 00:01:33;;;;;;;2.85;2.40;;;18.70;99.90;;;;;;4968606;28;20077;-69
2021/09/10 00:04:02;;;;;;;4.28;2.10;;;18.40;99.90;;;;;;4979432;28;20030;-69
2021/09/10 00:06:29;;;;;;;4.60;2.17;;;18.40;99.90;;;;;;4979136;28;20106;-69
2021/09/10 00:08:56;;;;;;;4.68;2.40;;;18.60;99.90;;;;;;4979445;28;20027;-69
2021/09/10 00:11:22;;;;;;;5.18;2.15;;;18.50;99.90;;;;;;4979256;28;20077;-69
2021/09/10 00:13:48;;;;;;;3.10;1.98;;;18.40;99.90;;;;;;4979456;28;20023;-69
2021/09/10 00:16:13;;;;;;;5.82;2.53;;;18.30;99.90;;;;;;4979345;28;20034;-69
2021/09/10 00:18:39;;;;;;;4.00;2.35;;;18.30;99.90;;;;;;4979297;28;20027;-69
2021/09/10 00:21:05;;;;;;;3.30;2.25;;;18.30;99.90;;;;;;4979171;28;20431;-69
2021/09/10 00:23:31;;;;;;;3.20;1.85;;;18.20;99.90;;;;;;4979005;28;20054;-70
2021/09/10 00:25:57;;;;;;;4.45;2.22;;;18.20;99.90;;;;;;4979199;28;20518;-70
2021/09/10 00:28:23;;;;;;;6.70;2.13;;;18.30;99.90;;;;;;4979158;28;20023;-69
2021/09/10 00:30:49;;;;;;;3.53;2.22;;;18.20;99.90;;;;;;4978939;28;20086;-69
2021/09/10 00:33:15;;;;;;;3.08;2.47;;;18.20;99.90;;;;;;4977924;28;20488;-70
2021/09/10 00:35:41;;;;;;;3.33;2.40;;;18.30;99.90;;;;;;4978973;28;20157;-69
2021/09/10 00:38:07;;;;;;;6.03;2.15;;;18.30;99.90;;;;;;4978782;28;20102;-70
2021/09/10 00:40:32;;;;;;;5.03;2.47;;;18.30;99.90;;;;;;4978793;28;20074;-69
2021/09/10 00:42:58;;;;;;;3.30;2.20;;;18.20;99.90;;;;;;4978066;28;20050;-69
2021/09/10 00:45:24;;;;;;;4.68;3.20;;;18.10;99.90;;;;;;4978688;28;20023;-69
2021/09/10 00:47:51;;;;;;;3.30;2.28;;;18.20;99.90;;;;;;4978873;28;20030;-69
2021/09/10 00:50:16;;;;;;;4.97;2.10;;;18.20;99.90;;;;;;4978492;28;20046;-69
2021/09/10 00:52:43;;;;;;;2.60;1.88;;;18.00;99.90;;;;;;4977095;28;20046;-69
2021/09/10 00:55:09;;;;;;;5.63;2.53;;;18.10;99.90;;;;;;4978534;28;20034;-70
2021/09/10 00:57:35;;;;;;;3.22;2.45;;;18.20;99.90;;;;;;4977393;28;20113;-69
2021/09/10 01:00:01;;;;;;;3.95;2.70;;;18.10;99.90;;;;;;4975104;28;20038;-69
2021/09/10 01:02:26;;;;;;;5.55;2.45;;;18.20;99.90;;;;;;4971760;28;20102;-70
2021/09/10 01:04:54;;;;;;;2.90;2.42;;;17.90;99.90;;;;;;4978442;28;20034;-69
2021/09/10 01:07:21;;;;;;;6.85;2.63;;;18.10;99.90;;;;;;4977027;28;20491;-70
2021/09/10 01:09:47;;;;;;;5.25;2.58;;;17.80;99.90;;;;;;4978522;28;20023;-69
2021/09/10 01:12:14;;;;;;;10.45;3.05;;;18.10;99.90;;;;;;4978755;28;20031;-69
2021/09/10 01:14:42;;;;;;;8.65;3.00;;;17.90;99.90;;;;;;4978544;28;20026;-69
2021/09/10 01:17:08;;;;;;;4.55;2.67;;;17.80;99.90;;;;;;4978554;28;20015;-69
2021/09/10 01:19:36;;;;;;;6.20;2.83;;;18.00;99.90;;;;;;4978508;28;20026;-69
2021/09/10 01:22:06;;;;;;;3.65;2.70;;;17.80;99.90;;;;;;4976810;28;20031;-69
2021/09/10 01:24:39;;;;;;;3.38;2.65;;;17.80;99.90;;;;;;4976991;28;20023;-70
2021/09/10 01:27:06;;;;;;;4.25;2.40;;;17.80;99.90;;;;;;4978452;28;20041;-70
2021/09/10 01:29:34;;;;;;;3.50;2.60;;;17.90;99.90;;;;;;4978362;28;20026;-70
2021/09/10 01:32:00;;;;;;;4.22;2.72;;;18.00;99.90;;;;;;4978487;28;20023;-69
2021/09/10 01:34:26;;;;;;;4.15;2.60;;;17.70;99.90;;;;;;4978409;28;20121;-70
2021/09/10 01:36:52;;;;;;;4.68;3.00;;;18.00;99.90;;;;;;4977906;28;20023;-70
2021/09/10 01:39:18;;;;;;;10.68;5.20;;;17.70;99.90;;;;;;4978341;28;20085;-69
2021/09/10 01:41:44;;;;;;;6.35;2.75;;;17.70;99.90;;;;;;4978138;28;20106;-69
2021/09/10 01:44:10;;;;;;;9.68;3.65;;;17.80;99.90;;;;;;4978365;28;20035;-69
2021/09/10 01:46:36;;;;;;;2.85;2.38;;;17.80;99.90;;;;;;4978228;28;20030;-70
2021/09/10 01:49:02;;;;;;;7.15;2.63;;;18.00;99.90;;;;;;4978255;28;20023;-69
2021/09/10 01:51:32;;;;;;;9.05;3.58;;;17.80;99.90;;;;;;4977823;28;20094;-69
2021/09/10 01:54:00;;;;;;;4.25;3.10;;;17.80;99.90;;;;;;4978540;28;20043;-69
2021/09/10 01:56:26;;;;;;;9.23;3.55;;;17.90;99.90;;;;;;4980559;28;20027;-69
2021/09/10 01:58:53;;;;;;;14.25;4.13;;;17.90;99.90;;;;;;4981880;28;20082;-69
2021/09/10 02:01:26;;;;;;;7.25;5.03;;;17.80;99.90;;;;;;4971047;28;20501;-70
2021/09/10 02:03:52;;;;;;;7.72;4.28;;;18.10;99.90;;;;;;4981711;28;20478;-69
2021/09/10 02:06:18;;;;;;;9.18;3.78;;;18.10;99.90;;;;;;4981410;28;20015;-69
2021/09/10 02:08:45;;;;;;;10.85;4.18;;;17.90;99.90;;;;;;4981686;28;20479;-69
2021/09/10 02:11:11;;;;;;;15.32;4.75;;;18.10;99.90;;;;;;4981579;28;20023;-70
2021/09/10 02:13:37;;;;;;;7.18;3.92;;;18.20;99.90;;;;;;4980332;28;20529;-69
2021/09/10 02:16:03;;;;;;;11.63;3.80;;;18.10;99.90;;;;;;4981509;28;20019;-69
2021/09/10 02:18:29;;;;;;;9.10;3.50;;;18.20;99.90;;;;;;4981771;28;20035;-70
2021/09/10 02:20:55;;;;;;;10.88;4.13;;;18.20;99.90;;;;;;4981255;28;20517;-70
2021/09/10 02:23:21;;;;;;;17.13;4.35;;;18.30;99.90;;;;;;4981315;28;20031;-70
2021/09/10 02:25:47;;;;;;;10.23;4.20;;;18.20;99.90;;;;;;4979977;28;20029;-70
2021/09/10 02:28:13;;;;;;;10.70;4.05;;;18.10;99.90;;;;;;4981641;28;20505;-69
2021/09/10 02:30:39;;;;;;;7.32;4.70;;;18.10;99.90;;;;;;4981618;28;20023;-70
2021/09/10 02:33:04;;;;;;;11.18;4.00;;;18.20;99.90;;;;;;4981430;28;20475;-69
2021/09/10 02:35:30;;;;;;;5.25;3.15;;;18.20;99.90;;;;;;4981059;28;20019;-69
2021/09/10 02:37:56;;;;;;;10.32;4.38;;;18.20;99.90;;;;;;4981021;28;20034;-69
2021/09/10 02:40:22;;;;;;;7.32;3.22;;;17.80;99.90;;;;;;4980977;28;20027;-69
2021/09/10 02:42:49;;;;;;;7.88;3.45;;;17.80;99.90;;;;;;4981175;28;20055;-69
2021/09/10 02:45:15;;;;;;;9.18;3.50;;;17.80;99.90;;;;;;4979540;28;20027;-69
2021/09/10 02:47:41;;;;;;;7.85;3.47;;;17.70;99.90;;;;;;4981093;28;20074;-70
2021/09/10 02:50:08;;;;;;;8.20;3.97;;;17.70;99.90;;;;;;4980800;28;20051;-69
2021/09/10 02:52:34;;;;;;;6.72;3.40;;;17.80;99.90;;;;;;4980457;28;20047;-69
2021/09/10 02:55:01;;;;;;;8.23;3.33;;;17.40;99.90;;;;;;4967680;28;20049;-69
2021/09/10 02:57:26;;;;;;;6.85;2.85;;;17.30;99.90;;;;;;4979545;28;20399;-69
2021/09/10 02:59:53;;;;;;;5.00;2.65;;;17.50;99.90;;;;;;4979628;28;20019;-69
2021/09/10 03:02:18;;;;;;;2.88;2.58;;;17.20;99.90;;;;;;4981036;28;20467;-69
2021/09/10 03:04:47;;;;;;;12.73;4.45;;;17.40;99.90;;;;;;4980494;28;20065;-69
2021/09/10 03:07:13;;;;;;;8.88;3.67;;;17.10;99.90;;;;;;4979426;28;20035;-69
2021/09/10 03:09:39;;;;;;;5.72;3.72;;;17.20;99.90;;;;;;4980249;28;20019;-69
2021/09/10 03:12:05;;;;;;;8.00;3.42;;;17.10;99.90;;;;;;4980423;28;20022;-70
2021/09/10 03:14:31;;;;;;;9.48;4.45;;;17.10;99.90;;;;;;4980295;28;20033;-70
2021/09/10 03:16:58;;;;;;;9.60;3.88;;;17.10;99.90;;;;;;4980494;28;20027;-70
2021/09/10 03:19:28;;;;;;;9.20;4.38;;;17.20;99.90;;;;;;4980233;28;20037;-70
2021/09/10 03:21:54;;;;;;;15.02;4.18;;;17.10;99.90;;;;;;4980144;28;20086;-69
2021/09/10 03:24:20;;;;;;;10.75;5.63;;;17.20;99.90;;;;;;4980104;28;20027;-70
2021/09/10 03:26:46;;;;;;;16.48;6.78;;;17.10;99.90;;;;;;4980375;28;20478;-69
2021/09/10 03:29:12;;;;;;;9.50;4.13;;;17.40;99.90;;;;;;4980045;28;20026;-70
2021/09/10 03:31:39;;;;;;;13.00;4.25;;;17.10;99.90;;;;;;4980197;28;20019;-69
2021/09/10 03:34:05;;;;;;;9.20;4.93;;;17.20;99.90;;;;;;4980034;28;20062;-70
2021/09/10 03:36:31;;;;;;;7.93;4.18;;;17.30;99.90;;;;;;4979705;28;20408;-70
2021/09/10 03:38:57;;;;;;;10.25;5.18;;;17.50;99.90;;;;;;4980033;28;20026;-70
2021/09/10 03:41:23;;;;;;;11.90;4.90;;;17.20;99.90;;;;;;4979921;28;20396;-70
2021/09/10 03:43:52;;;;;;;14.90;4.93;;;17.40;99.90;;;;;;4979734;28;20029;-70
2021/09/10 03:46:20;;;;;;;11.90;4.85;;;17.50;99.90;;;;;;4979905;28;20481;-70
2021/09/10 03:48:47;;;;;;;10.70;4.88;;;17.50;99.90;;;;;;4978406;28;20113;-69
2021/09/10 03:51:13;;;;;;;8.32;4.65;;;17.60;99.90;;;;;;4979636;28;20022;-70
2021/09/10 03:53:39;;;;;;;12.23;4.50;;;17.70;99.90;;;;;;4979310;28;20043;-69
2021/09/10 03:56:05;;;;;;;9.70;4.38;;;17.80;99.90;;;;;;4978348;28;20096;-70
2021/09/10 03:58:31;;;;;;;10.57;4.13;;;17.90;99.90;;;;;;4979670;28;20042;-70
2021/09/10 04:00:57;;;;;;;17.50;5.50;;;17.90;99.90;;;;;;4968961;28;20031;-70
2021/09/10 04:03:23;;;;;;;10.98;4.63;;;17.90;99.90;;;;;;4978322;28;20088;-69
2021/09/10 04:05:49;;;;;;;5.88;4.30;;;17.80;99.90;;;;;;4979463;28;20022;-70
2021/09/10 04:08:15;;;;;;;6.80;4.18;;;18.00;99.90;;;;;;4978076;28;20027;-69
2021/09/10 04:10:41;;;;;;;11.23;4.20;;;17.70;99.90;;;;;;4979380;28;20027;-69
2021/09/10 04:13:08;;;;;;;8.80;5.07;;;17.90;99.90;;;;;;4979484;28;20446;-69
2021/09/10 04:15:33;;;;;;;9.07;4.50;;;17.90;99.90;;;;;;4979262;28;20033;-70
2021/09/10 04:18:00;;;;;;;10.85;5.18;;;18.00;99.90;;;;;;4979301;28;20106;-69
2021/09/10 04:20:25;;;;;;;5.85;4.20;;;18.00;99.90;;;;;;4979238;28;20085;-69
2021/09/10 04:22:51;;;;;;;11.35;5.15;;;18.00;99.90;;;;;;4978976;28;20019;-69
2021/09/10 04:25:17;;;;;;;19.00;5.82;;;18.00;99.90;;;;;;4979170;28;20035;-70
2021/09/10 04:27:43;;;;;;;10.23;4.38;;;17.90;99.90;;;;;;4979308;28;20021;-71
2021/09/10 04:30:10;;;;;;;8.43;4.38;;;18.00;99.90;;;;;;4979073;28;20161;-72
2021/09/10 04:32:36;;;;;;;11.63;5.85;;;17.80;99.90;;;;;;4979376;28;20205;-71
2021/09/10 04:35:03;;;;;;;17.38;7.03;;;18.00;99.90;;;;;;4978886;28;20035;-72
2021/09/10 04:37:29;;;;;;;12.82;5.03;;;18.00;99.90;;;;;;4977483;28;20034;-71
2021/09/10 04:39:55;;;;;;;12.77;5.15;;;18.10;99.90;;;;;;4978972;28;20035;-71
2021/09/10 04:42:22;;;;;;;14.93;6.05;;;18.10;99.90;;;;;;4978960;28;20390;-71
2021/09/10 04:44:48;;;;;;;16.73;5.50;;;18.10;99.90;;;;;;4978911;28;20023;-71
2021/09/10 04:47:14;;;;;;;13.95;5.20;;;18.20;99.90;;;;;;4978826;28;20023;-71
2021/09/10 04:49:41;;;;;;;19.63;6.15;;;18.20;99.90;;;;;;4978885;28;20119;-71
2021/09/10 04:52:08;;;;;;;8.05;5.25;;;18.00;99.90;;;;;;4978381;28;20074;-71
2021/09/10 04:54:34;;;;;;;10.15;5.78;;;18.10;99.90;;;;;;4978751;28;20019;-70
2021/09/10 04:57:00;;;;;;;13.88;5.45;;;18.10;99.90;;;;;;4978776;28;20499;-68
2021/09/10 04:59:25;;;;;;;8.00;4.70;;;18.10;99.90;;;;;;4978812;28;20102;-68
2021/09/10 05:01:51;;;;;;;6.43;4.00;;;18.00;99.90;;;;;;4966507;28;20034;-70
2021/09/10 05:04:22;;;;;;;14.57;5.32;;;18.10;99.90;;;;;;4971055;28;20066;-69
2021/09/10 05:06:48;;;;;;;11.07;4.80;;;18.10;99.90;;;;;;4978259;28;20089;-70
2021/09/10 05:09:13;;;;;;;10.55;5.47;;;18.00;99.90;;;;;;4978151;28;20027;-69
2021/09/10 05:11:39;;;;;;;13.00;5.63;;;18.10;99.90;;;;;;4978524;28;20022;-69
2021/09/10 05:14:06;;;;;;;9.85;4.80;;;18.20;99.90;;;;;;4978595;28;20019;-70
2021/09/10 05:16:32;;;;;;;9.43;4.15;;;18.20;99.90;;;;;;4978243;28;20077;-67
2021/09/10 05:18:57;;;;;;;12.60;5.43;;;18.10;99.90;;;;;;4978361;28;20035;-68
2021/09/10 05:21:23;;;;;;;14.25;5.40;;;18.10;99.90;;;;;;4978075;28;20031;-69
2021/09/10 05:23:49;;;;;;;11.82;4.35;;;18.10;99.90;;;;;;4977796;28;20092;-70
2021/09/10 05:26:15;;;;;;;8.32;4.45;;;18.20;99.90;;;;;;4978240;28;20023;-69
2021/09/10 05:28:41;;;;;;;11.48;5.65;;;18.20;99.90;;;;;;4978366;28;20045;-69
2021/09/10 05:31:07;;;;;;;13.27;4.50;;;18.10;99.90;;;;;;4981853;28;20110;-69
2021/09/10 05:33:33;;;;;;;11.23;4.35;;;18.40;99.90;;;;;;4981937;28;20935;-69
2021/09/10 05:35:59;;;;;;;10.40;5.05;;;18.10;99.90;;;;;;4981868;28;20070;-69
2021/09/10 05:38:24;;;;;;;12.65;4.68;;;18.20;99.90;;;;;;4981684;28;20035;-69
2021/09/10 05:40:50;;;;;;;14.20;6.07;;;18.40;99.90;;;;;;4982263;28;20077;-69
2021/09/10 05:43:16;;;;;;;6.32;4.28;;;18.40;99.90;;;;;;4982007;28;20023;-69
2021/09/10 05:45:42;;;;;;;6.57;4.30;;;18.40;99.90;;;;;;4982145;28;20022;-69
2021/09/10 05:48:08;;;;;;;4.90;3.47;;;;;;;;;;4982015;28;20027;-69
2021/09/10 05:50:34;;;;;;;7.55;4.32;;;18.40;99.90;;;;;;4982099;28;20030;-69
2021/09/10 05:53:00;;;;;;;7.95;3.78;;;18.50;99.90;;;;;;4981467;28;20474;-69
2021/09/10 05:55:27;;;;;;;11.32;4.28;;;;;;;;;;4982015;28;20033;-69
2021/09/10 05:57:53;;;;;;;15.52;4.68;;;;;;;;;;4982268;28;20058;-69
2021/09/10 06:00:19;;;;;;;12.40;4.38;;;18.30;99.90;;;;;;4976033;28;20055;-69
2021/09/10 06:02:45;;;;;;;10.02;3.53;;;18.50;99.90;;;;;;4976958;28;20387;-69
2021/09/10 06:05:11;;;;;;;5.43;3.38;;;18.40;99.90;;;;;;4981771;28;20030;-69
2021/09/10 06:07:37;;;;;;;5.57;3.45;;;18.50;99.90;;;;;;4981508;28;20026;-69
2021/09/10 06:10:03;;;;;;;5.78;3.00;;;;;;;;;;4981752;28;20053;-69
2021/09/10 06:12:30;;;;;;;5.25;2.80;;;;;;;;;;4981762;28;20074;-69
2021/09/10 06:14:56;;;;;;;6.63;2.40;;;;;;;;;;4981595;28;20109;-69
2021/09/10 06:17:22;;;;;;;5.60;2.05;;;;;;;;;;4981483;28;20158;-69
2021/09/10 06:19:49;;;;;;;8.07;2.90;;;;;;;;;;4981588;28;20022;-69
2021/09/10 06:22:15;;;;;;;5.90;2.40;;;;;;;;;;4979812;28;20038;-69
2021/09/10 06:24:42;;;;;;;5.38;2.20;;;;;;;;;;4981559;28;20023;-71
2021/09/10 06:27:07;;;;;;;5.43;2.38;;;18.80;99.90;;;;;;4981195;28;20082;-71
2021/09/10 06:29:33;;;;;;;3.72;2.70;;;18.40;99.90;;;;;;4981392;28;20027;-71
2021/09/10 06:31:59;;;;;;;3.88;1.92;;;18.40;99.90;;;;;;4981231;28;20034;-71
2021/09/10 06:34:26;;;;;;;4.57;2.35;;;18.40;99.90;;;;;;4981613;28;20023;-71
2021/09/10 06:36:52;;;;;;;3.83;2.35;;;18.50;99.90;;;;;;4980743;28;20110;-71
2021/09/10 06:39:18;;;;;;;8.63;2.30;;;;;;;;;;4981369;28;20061;-69
2021/09/10 06:41:45;;;;;;;3.92;2.38;;;;;;;;;;4980968;28;20031;-70
2021/09/10 06:44:11;;;;;;;4.00;3.58;;;;;;;;;;4981134;28;20031;-71
2021/09/10 06:46:37;;;;;;;6.85;2.33;;;18.40;99.90;;;;;;4979672;28;20038;-71
2021/09/10 06:49:04;;;;;;;3.65;2.20;;;18.90;99.90;;;;;;4981094;28;20019;-71
2021/09/10 06:51:30;;;;;;;2.17;1.98;;;18.90;99.90;;;;;;4980439;28;20035;-71
2021/09/10 06:53:56;;;;;;;3.08;1.70;;;18.80;99.90;;;;;;4972010;28;20051;-71
2021/09/10 06:56:22;;;;;;;2.83;1.90;;;18.90;99.90;;;;;;4976632;28;20057;-71
2021/09/10 06:58:48;;;;;;;3.05;2.55;;;;;;;;;;4980932;28;20014;-71
2021/09/10 07:01:15;;;;;;;4.05;1.98;;;;;;;;;;4979475;28;20037;-71
2021/09/10 07:03:41;;;;;;;2.25;1.75;;;;;;;;;;4980890;28;20030;-71
2021/09/10 07:06:07;;;;;;;2.97;2.00;;;;;;;;;;4980492;28;20505;-71
2021/09/10 07:08:33;;;;;;;2.03;1.75;;;;;;;;;;4979302;28;20033;-71
2021/09/10 07:11:01;;;;;;;2.15;1.55;;;;;;;;;;4980639;28;20026;-71
2021/09/10 07:13:28;;;;;;;2.22;1.88;;;;;;;;;;4980796;28;20023;-71
2021/09/10 07:15:54;;;;;;;2.10;1.83;;;;;;;;;;4980496;28;20027;-71
2021/09/10 07:18:20;;;;;;;2.33;1.80;;;;;;;;;;4979258;28;20070;-71
2021/09/10 07:20:47;;;;;;;6.28;2.47;;;;;;;;;;4978816;28;20027;-71
2021/09/10 07:23:13;;;;;;;3.42;2.17;;;;;;;;;;4980092;28;20019;-72
2021/09/10 07:25:40;;;;;;;2.08;1.73;;;;;;;;;;4980103;28;20027;-72
2021/09/10 07:28:06;;;;;;;4.05;1.88;;;19.90;99.90;;;;;;4980170;28;20035;-71
2021/09/10 07:30:33;;;;;;;3.92;1.75;;;19.70;99.90;;;;;;4980110;28;20423;-71
2021/09/10 07:32:59;;;;;;;2.70;1.90;;;19.70;99.90;;;;;;4978810;28;20027;-71
2021/09/10 07:35:25;;;;;;;2.03;1.65;;;19.70;99.90;;;;;;4978734;28;20035;-71
2021/09/10 07:37:51;;;;;;;2.58;2.00;;;19.80;99.90;;;;;;4979788;28;20029;-71
2021/09/10 07:40:17;;;;;;;1.58;1.48;;;;;;;;;;4979916;28;20115;-72
2021/09/10 07:42:44;;;;;;;4.40;1.77;;;;;;;;;;4980139;28;20026;-71
2021/09/10 07:45:11;;;;;;;1.83;1.73;;;;;;;;;;4979800;28;20031;-71
2021/09/10 07:47:37;;;;;;;2.45;1.80;;;;;;;;;;4980073;28;20079;-71
2021/09/10 07:50:04;;;;;;;2.15;1.55;;;;;;;;;;4979767;28;20054;-71
2021/09/10 07:52:30;;;;;;;1.80;1.70;;;;;;;;;;4978975;28;20073;-72
2021/09/10 07:54:56;;;;;;;1.73;1.63;;;;;;;;;;4978355;28;20042;-71
2021/09/10 07:57:23;;;;;;;3.10;1.92;;;19.80;99.90;;;;;;4979827;28;20030;-71
2021/09/10 07:59:55;;;;;;;1.55;1.45;;;19.90;99.90;;;;;;4977724;28;20444;-71
2021/09/10 08:02:21;;;;;;;3.78;1.80;;;19.90;99.90;;;;;;4971616;28;20018;-71
2021/09/10 08:04:47;;;;;;;2.33;2.10;;;20.10;99.90;;;;;;4979363;28;20090;-71
2021/09/10 08:07:13;;;;;;;2.58;1.60;;;19.90;99.90;;;;;;4979401;28;20027;-72
2021/09/10 08:09:39;;;;;;;1.92;1.60;;;20.50;99.90;;;;;;4979372;28;20029;-72
2021/09/10 08:12:05;;;;;;;2.53;1.75;;;20.40;99.90;;;;;;4978198;28;20058;-72
2021/09/10 08:14:31;;;;;;;4.43;1.67;;;20.30;99.90;;;;;;4979385;28;20037;-71
2021/09/10 08:16:57;;;;;;;2.13;1.95;;;20.90;99.90;;;;;;4978112;28;20034;-72
2021/09/10 08:19:23;;;;;;;3.35;2.35;;;21.00;99.90;;;;;;4979179;28;20038;-72
2021/09/10 08:21:49;;;;;;;2.10;1.90;;;21.40;99.90;;;;;;4979112;28;20038;-71
2021/09/10 08:24:15;;;;;;;2.03;1.60;;;21.50;99.90;;;;;;4979171;28;20026;-72
2021/09/10 08:26:41;;;;;;;3.63;1.70;;;21.20;99.90;;;;;;4979257;28;20379;-72
2021/09/10 08:29:07;;;;;;;1.45;1.35;;;;;;;;;;4979061;28;20018;-72
2021/09/10 08:31:33;;;;;;;3.70;1.63;;;22.60;99.90;;;;;;4977846;28;20364;-72
2021/09/10 08:34:02;;;;;;;2.35;1.52;;;22.70;99.90;;;;;;4978990;28;20031;-72
2021/09/10 08:36:28;;;;;;;3.90;1.60;;;23.00;99.90;;;;;;4978876;28;20019;-72
2021/09/10 08:38:54;;;;;;;2.05;1.35;;;;;;;;;;4978870;28;20027;-72
2021/09/10 08:41:23;;;;;;;1.35;1.25;;;23.70;99.90;;;;;;4978947;28;20395;-73
2021/09/10 08:43:49;;;;;;;2.38;1.30;;;24.10;99.90;;;;;;4978746;28;20479;-72
2021/09/10 08:46:16;;;;;;;1.05;1.00;;;23.80;99.90;;;;;;4978930;28;20077;-73
2021/09/10 08:48:46;;;;;;;2.75;1.27;;;23.90;99.90;;;;;;4978773;28;20442;-72
2021/09/10 08:51:14;;;;;;;1.80;1.10;;;24.70;99.90;;;;;;4978423;28;20034;-73
2021/09/10 08:53:40;;;;;;;1.70;1.40;;;25.30;99.90;;;;;;4978453;28;20053;-73
2021/09/10 08:56:06;;;;;;;1.95;1.20;;;25.10;99.90;;;;;;4978737;28;20019;-70
2021/09/10 08:58:32;;;;;;;5.57;1.27;;;23.90;99.90;;;;;;4978888;28;20031;-70
2021/09/10 09:00:59;;;;;;;1.05;0.98;;;23.80;99.90;;;;;;4966433;28;20516;-70
2021/09/10 09:03:28;;;;;;;2.55;1.33;;;23.50;99.90;;;;;;4978381;28;20031;-70
2021/09/10 09:05:54;;;;;;;1.52;1.27;;;23.10;99.90;;;;;;4976990;28;20491;-70
2021/09/10 09:08:20;;;;;;;4.00;1.40;;;23.10;99.90;;;;;;4977297;28;20034;-70
2021/09/10 09:11:05;;;;;;;2.35;1.27;;;23.60;99.90;;;;;;4978608;28;20027;-70
2021/09/10 09:13:40;;;;;;;1.20;1.10;;;24.00;99.90;;;;;;4978586;28;20045;-70
2021/09/10 09:16:29;;;;;;;2.28;1.50;;;24.10;99.90;;;;;;4978472;28;20038;-70
2021/09/10 09:19:02;;;;;;;2.83;0.98;;;24.00;99.90;;;;;;4977542;28;20023;-70
2021/09/10 09:21:29;;;;;;;3.30;1.08;;;23.70;99.90;;;;;;4978250;28;20030;-70
2021/09/10 09:24:20;;;;;;;2.13;0.95;;;23.60;99.90;;;;;;4978582;28;20093;-70
2021/09/10 09:26:49;;;;;;;1.27;0.98;;;23.00;99.90;;;;;;4979152;28;20122;-70
2021/09/10 09:29:16;;;;;;;3.00;1.10;;;;;;;;;;4978247;28;20043;-70
2021/09/10 09:31:52;;;;;;;1.58;1.10;;;23.00;99.90;;;;;;4978540;28;20022;-70
2021/09/10 09:34:50;;;;;;;4.72;1.60;;;23.30;99.90;;;;;;4978659;28;20061;-70
2021/09/10 09:37:18;;;;;;;2.83;1.30;;;23.50;99.90;;;;;;4978020;28;20031;-70
2021/09/10 09:40:00;;;;;;;1.83;1.20;;;23.50;99.90;;;;;;4978563;28;20054;-70
2021/09/10 09:42:31;;;;;;;3.33;0.98;;;23.60;99.90;;;;;;4978755;28;20022;-70
2021/09/10 09:45:24;;;;;;;1.25;0.80;;;22.70;99.90;;;;;;4978365;28;20482;-70
2021/09/10 09:47:50;;;;;;;2.25;1.25;;;23.00;99.90;;;;;;4978220;28;20081;-70
2021/09/10 09:50:18;;;;;;;1.50;1.08;;;22.70;99.90;;;;;;4978077;28;20015;-70
2021/09/10 09:52:49;;;;;;;4.88;1.33;;;23.00;99.90;;;;;;4977835;28;20070;-70
2021/09/10 09:55:16;;;;;;;1.58;1.27;;;23.00;99.90;;;;;;4965307;28;20031;-70
2021/09/10 09:57:43;;;;;;;2.17;1.25;;;23.30;99.90;;;;;;4976963;28;20038;-70
2021/09/10 10:00:10;;;;;;;1.35;1.25;;;23.30;99.90;;;;;;4973707;28;20495;-70
2021/09/10 10:02:37;;;;;;;1.15;1.05;;;23.80;99.90;;;;;;4972115;28;20023;-70
2021/09/10 10:05:06;;;;;;;2.78;1.02;;;24.00;99.90;;;;;;4978210;28;20027;-70
2021/09/10 10:07:43;;;;;;;3.10;0.80;;;24.80;99.90;;;;;;4977684;28;20027;-70
2021/09/10 10:10:13;;;;;;;0.70;0.70;;;26.00;99.90;;;;;;4976777;28;20026;-70
2021/09/10 10:12:41;;;;;;;1.13;0.90;;;26.40;99.90;;;;;;4978120;28;20110;-70
2021/09/10 10:15:28;;;;;;;0.85;0.80;;;26.60;99.90;;;;;;4978793;28;20052;-70
2021/09/10 10:17:55;;;;;;;2.05;0.98;;;;;;;;;;4980182;28;20039;-71
2021/09/10 10:20:46;;;;;;;1.10;0.80;;;26.80;99.90;;;;;;4981921;28;20085;-70
2021/09/10 10:23:43;;;;;;;1.17;0.70;;;26.10;99.90;;;;;;4981631;28;20034;-70
2021/09/10 10:26:13;;;;;;;1.13;0.70;;;25.90;99.90;;;;;;4980161;28;20042;-70
2021/09/10 10:28:48;;;;;;;1.10;1.00;;;25.80;99.90;;;;;;4981443;28;20069;-70
2021/09/10 10:31:15;;;;;;;3.35;0.90;;;26.30;99.90;;;;;;4981638;28;20038;-70
2021/09/10 10:33:49;;;;;;;1.20;0.95;;;26.50;99.90;;;;;;4979982;28;20050;-70
2021/09/10 10:36:34;;;;;;;0.93;0.60;;;;;;;;;;4979840;28;20026;-70
2021/09/10 10:39:12;;;;;;;1.95;1.10;;;28.80;99.90;;;;;;4981226;28;20030;-70
2021/09/10 10:41:46;;;;;;;1.02;0.88;;;29.20;99.30;;;;;;4981405;28;20027;-71
2021/09/10 10:44:34;;;;;;;2.47;1.00;;;30.70;98.90;;;;;;4981095;28;20187;-70
2021/09/10 10:47:03;;;;;;;1.63;0.80;;;31.00;96.10;;;;;;4979703;28;20023;-71
2021/09/10 10:49:39;;;;;;;3.58;1.30;;;29.10;95.40;;;;;;4981158;28;20027;-70
2021/09/10 10:52:24;;;;;;;3.60;1.02;;;27.90;98.30;;;;;;4980626;28;20038;-71
2021/09/10 10:55:27;;;;;;;0.70;0.70;;;27.80;99.00;;;;;;4980802;28;20471;-70
2021/09/10 10:58:14;;;;;;;1.27;0.93;;;28.50;99.50;;;;;;4980777;28;20494;-70
2021/09/10 11:00:45;;;;;;;1.38;0.90;;;29.20;96.60;;;;;;4972042;28;20027;-71
2021/09/10 11:03:14;;;;;;;0.70;0.60;;;29.60;97.10;;;;;;4979319;28;20118;-70
2021/09/10 11:05:44;;;;;;;1.20;0.80;;;29.40;96.10;;;;;;4980486;28;20027;-71
2021/09/10 11:08:11;;;;;;;1.40;0.80;;;29.20;96.10;;;;;;4979195;28;20023;-71
2021/09/10 11:10:37;;;;;;;1.13;0.73;;;28.90;95.30;;;;;;4980708;28;20030;-70
2021/09/10 11:13:03;;;;;;;0.60;0.60;;;27.70;95.50;;;;;;4980864;28;20509;-69
2021/09/10 11:15:32;;;;;;;1.23;0.80;;;26.80;96.20;;;;;;4980531;28;20019;-70
2021/09/10 11:18:07;;;;;;;0.90;0.90;;;25.70;97.30;;;;;;4980464;28;20069;-70
2021/09/10 11:20:37;;;;;;;2.03;1.23;;;24.90;98.70;;;;;;4979239;28;20126;-70
2021/09/10 11:23:05;;;;;;;1.90;1.10;;;24.40;99.90;;;;;;4980636;28;20066;-70
2021/09/10 11:25:31;;;;;;;1.65;1.38;;;24.50;99.90;;;;;;4980176;28;20031;-70
2021/09/10 11:27:58;;;;;;;2.65;1.30;;;;;;;;;;4978214;28;20439;-70
2021/09/10 11:30:29;;;;;;;1.58;1.15;;;23.80;99.90;;;;;;4980140;28;20023;-70
2021/09/10 11:33:00;;;;;;;1.38;1.17;;;24.00;99.90;;;;;;4980354;28;20026;-70
2021/09/10 11:35:28;;;;;;;2.15;1.90;;;24.40;99.90;;;;;;4978605;28;20038;-70
2021/09/10 11:37:59;;;;;;;2.50;1.30;;;24.60;99.90;;;;;;4980097;28;20077;-70
2021/09/10 11:40:34;;;;;;;3.33;1.67;;;24.70;99.90;;;;;;4978682;28;20045;-70
2021/09/10 11:43:02;;;;;;;2.08;1.27;;;24.70;99.90;;;;;;4978804;28;20019;-70
2021/09/10 11:45:30;;;;;;;2.33;1.27;;;24.60;99.90;;;;;;4979790;28;20031;-70
2021/09/10 11:47:56;;;;;;;7.75;2.40;;;24.70;99.90;;;;;;4980083;28;20015;-70
2021/09/10 11:50:22;;;;;;;1.83;1.65;;;24.80;99.90;;;;;;4979462;28;20508;-70
2021/09/10 11:52:48;;;;;;;5.00;1.75;;;24.70;99.90;;;;;;4979657;28;20122;-70
2021/09/10 11:55:16;;;;;;;2.03;1.38;;;24.90;99.90;;;;;;4979907;28;20062;-70
2021/09/10 11:57:43;;;;;;;2.05;1.35;;;25.00;99.90;;;;;;4979767;28;20505;-70
2021/09/10 12:00:30;;;;;;;2.25;1.70;;;25.30;99.90;;;;;;4975238;28;20030;-70
2021/09/10 12:02:58;;;;;;;2.88;2.00;;;25.50;99.90;;;;;;4976192;28;20043;-70
2021/09/10 12:05:26;;;;;;;2.58;1.30;;;25.30;99.90;;;;;;4979515;28;20037;-70
2021/09/10 12:07:53;;;;;;;4.05;1.30;;;25.40;99.90;;;;;;4979338;28;20081;-70
2021/09/10 12:10:34;;;;;;;2.35;1.30;;;25.40;99.90;;;;;;4979733;28;20050;-70
2021/09/10 12:13:14;;;;;;;2.53;1.35;;;25.50;99.90;;;;;;4979381;28;20078;-70
2021/09/10 12:15:42;;;;;;;3.92;1.45;;;25.50;99.90;;;;;;4979584;28;20027;-70
2021/09/10 12:18:16;;;;;;;2.33;1.50;;;25.50;99.90;;;;;;4979652;28;20019;-70
2021/09/10 12:20:43;;;;;;;2.47;1.40;;;25.40;99.90;;;;;;4979212;28;20035;-70
2021/09/10 12:23:19;;;;;;;3.28;1.63;;;25.20;99.90;;;;;;4979219;28;20031;-70
2021/09/10 12:25:59;;;;;;;1.67;1.20;;;25.10;99.90;;;;;;4979079;28;20058;-70
2021/09/10 12:28:31;;;;;;;3.47;1.50;;;25.40;99.90;;;;;;4979240;28;20058;-70
2021/09/10 12:31:01;;;;;;;2.80;1.70;;;25.80;99.90;;;;;;4979236;28;20401;-70
2021/09/10 12:33:28;;;;;;;2.17;1.60;;;26.20;99.20;;;;;;4979049;28;20027;-70
2021/09/10 12:36:00;;;;;;;3.75;1.80;;;26.50;99.80;;;;;;4977548;28;20062;-70
2021/09/10 12:38:34;;;;;;;3.58;1.70;;;26.60;98.70;;;;;;4978725;28;20027;-70
2021/09/10 12:41:00;;;;;;;2.13;1.20;;;27.10;99.30;;;;;;4979151;28;20081;-70
2021/09/10 12:43:27;;;;;;;2.85;1.35;;;27.80;98.60;;;;;;4978800;28;20019;-70
2021/09/10 12:45:55;;;;;;;3.50;1.45;;;28.00;96.60;;;;;;4979095;28;20037;-70
2021/09/10 12:48:21;;;;;;;2.30;1.15;;;27.60;97.00;;;;;;4978787;28;20046;-70
2021/09/10 12:50:48;;;;;;;1.75;1.30;;;27.00;97.80;;;;;;4978907;28;20031;-70
2021/09/10 12:53:14;;;;;;;2.17;1.10;;;26.70;98.00;;;;;;4978610;28;20035;-70
2021/09/10 12:55:40;;;;;;;1.95;1.10;;;26.80;97.70;;;;;;4978820;28;20058;-70
2021/09/10 12:58:07;;;;;;;1.60;1.20;;;26.80;97.50;;;;;;4978914;28;20037;-70
2021/09/10 13:00:34;;;;;;;1.15;1.00;;;26.80;97.10;;;;;;4971023;28;20114;-70
2021/09/10 13:03:00;;;;;;;1.60;1.00;;;27.10;98.30;;;;;;4975480;28;20047;-70